Ahtari, Finland

7:50 AM EEST on April 26, 2015 (GMT +0300)
Lehtimaki | | Change Station
CLOSE
Current Station
Personal Weather Station
Location: Alajarvi, LANSI-SUOMI
Elevation: 669 ft
Nearby Weather Stations

Elev 669 ft 62.82 °N, 23.95 °E | Updated 6 seconds ago

Light Rain
Light Rain
37.2 °F
Feels Like 32 °F
N
6.0
Wind Variable Wind from ESE
Gusts 10.4 mph

Today
High -- | Low -- °F
--% Chance of Precip.
Yesterday
High -- | Low -- °F
Precip. -- in
5:23 AM 9:20 PM
First Quarter, 52% visible
Pressure 29.62 in
Visibility 6.2 miles
Clouds Scattered Clouds 700 ft
Mostly Cloudy 1000 ft
Mostly Cloudy 1300 ft
Windchill 32 °F
Dew Point 36 °F
Humidity 95%
Rainfall 0.00 in
Snow Depth Not available.
UV 0 out of 12
Pollen Not available.
Air Quality Not available.
Flu Activity Not available.
METAR EFSI 260420Z 11012KT 9999 -RA SCT007 BKN010 BKN013 04/03 Q1003

More Conditions Fewer Conditions

Pressure 29.62 in
Visibility 6.2 miles
Clouds Scattered Clouds 700 ft
Mostly Cloudy 1000 ft
Mostly Cloudy 1300 ft
Windchill 32 °F
Dew Point 36 °F
Humidity 95%
Rainfall 0.00 in
Snow Depth Not available.
UV 0 out of 12
Pollen Not available.
Air Quality Not available.
Flu Activity Not available.
METAR EFSI 260420Z 11012KT 9999 -RA SCT007 BKN010 BKN013 04/03 Q1003

More Conditions Fewer Conditions

10-Day Weather Forecast

Almanac

Astronomy

Apr. 26, 2015 Rise Set
Actual Time
Civil Twilight
Nautical Twilight
Astronomical Twilight
Moon
Length of Visible Light
Length of Day
Tomorrow will be .
, % of the Moon is Illuminated

Today's Extremes

Country Highs Country Lows

Community

WunderPhotos

Upload Photos

1,816,938 photos uploaded!

WunderBlogs® & News

Nearby

Air Quality

  Air Quality AQ Index Pollutant
Not available.

Snow Depth

Station Depth Elevation

Earthquake Activity

City Distance Mag. Time & Date
Minimum magnitude displayed is 2.5.

Coastal Water Temperatures

Place Temperature

Stations

Nearby Weather Stations

Station Location Temp. Windchill Dew Point Humidity Wind Precip. Elev Updated Type